sensor_id;sensor_type;location;lat;lon;timestamp;temperature;humidity
19947;DHT22;10135;50.702;7.276;2023-08-20T05:30:11;24.00;73.00
19947;DHT22;10135;50.702;7.276;2023-08-20T05:32:12;23.90;72.70
19947;DHT22;10135;50.702;7.276;2023-08-20T05:34:13;23.90;72.70
19947;DHT22;10135;50.702;7.276;2023-08-20T05:36:14;24.00;73.00
19947;DHT22;10135;50.702;7.276;2023-08-20T05:38:15;24.00;73.00
19947;DHT22;10135;50.702;7.276;2023-08-20T05:40:16;24.00;73.20
19947;DHT22;10135;50.702;7.276;2023-08-20T05:42:17;24.10;73.10
19947;DHT22;10135;50.702;7.276;2023-08-20T05:44:17;24.10;73.20
19947;DHT22;10135;50.702;7.276;2023-08-20T05:46:18;24.10;73.30
19947;DHT22;10135;50.702;7.276;2023-08-20T05:48:18;24.10;73.20
19947;DHT22;10135;50.702;7.276;2023-08-20T05:50:19;24.10;73.30
19947;DHT22;10135;50.702;7.276;2023-08-20T05:52:20;24.10;73.30
19947;DHT22;10135;50.702;7.276;2023-08-20T05:54:20;24.20;73.30
19947;DHT22;10135;50.702;7.276;2023-08-20T05:56:21;24.20;73.40
19947;DHT22;10135;50.702;7.276;2023-08-20T05:58:22;24.20;73.30
19947;DHT22;10135;50.702;7.276;2023-08-20T06:00:22;24.30;73.50
19947;DHT22;10135;50.702;7.276;2023-08-20T06:02:23;24.30;73.50
19947;DHT22;10135;50.702;7.276;2023-08-20T06:04:24;24.40;73.70
19947;DHT22;10135;50.702;7.276;2023-08-20T06:06:24;24.40;73.60
19947;DHT22;10135;50.702;7.276;2023-08-20T06:08:25;24.50;73.70
19947;DHT22;10135;50.702;7.276;2023-08-20T06:10:25;24.50;73.70
19947;DHT22;10135;50.702;7.276;2023-08-20T06:12:26;24.60;73.70
19947;DHT22;10135;50.702;7.276;2023-08-20T06:14:27;24.60;73.70
19947;DHT22;10135;50.702;7.276;2023-08-20T06:16:28;24.70;73.80
19947;DHT22;10135;50.702;7.276;2023-08-20T06:18:28;24.80;73.80
19947;DHT22;10135;50.702;7.276;2023-08-20T06:20:29;24.90;73.80
19947;DHT22;10135;50.702;7.276;2023-08-20T06:22:30;24.90;73.80
19947;DHT22;10135;50.702;7.276;2023-08-20T06:24:35;25.00;73.70
19947;DHT22;10135;50.702;7.276;2023-08-20T06:26:35;25.00;73.60
19947;DHT22;10135;50.702;7.276;2023-08-20T06:28:36;25.00;73.50
19947;DHT22;10135;50.702;7.276;2023-08-20T06:30:36;25.10;73.50
19947;DHT22;10135;50.702;7.276;2023-08-20T06:32:37;25.10;73.50
19947;DHT22;10135;50.702;7.276;2023-08-20T06:34:38;25.10;73.50
19947;DHT22;10135;50.702;7.276;2023-08-20T06:36:38;25.10;73.40
19947;DHT22;10135;50.702;7.276;2023-08-20T06:38:39;25.10;73.30
19947;DHT22;10135;50.702;7.276;2023-08-20T06:40:40;25.10;73.30
19947;DHT22;10135;50.702;7.276;2023-08-20T06:42:40;25.20;73.40
19947;DHT22;10135;50.702;7.276;2023-08-20T06:44:41;25.20;73.50
19947;DHT22;10135;50.702;7.276;2023-08-20T06:46:41;25.10;73.30
19947;DHT22;10135;50.702;7.276;2023-08-20T06:48:42;25.20;73.50
19947;DHT22;10135;50.702;7.276;2023-08-20T06:50:43;25.10;73.40
19947;DHT22;10135;50.702;7.276;2023-08-20T06:52:43;25.20;73.50
19947;DHT22;10135;50.702;7.276;2023-08-20T06:54:44;25.20;73.60
19947;DHT22;10135;50.702;7.276;2023-08-20T06:56:45;25.20;73.50
19947;DHT22;10135;50.702;7.276;2023-08-20T06:58:46;25.20;73.60
19947;DHT22;10135;50.702;7.276;2023-08-20T07:00:47;25.30;73.70
19947;DHT22;10135;50.702;7.276;2023-08-20T07:02:47;25.30;73.60
19947;DHT22;10135;50.702;7.276;2023-08-20T07:04:48;25.30;73.50
19947;DHT22;10135;50.702;7.276;2023-08-20T07:06:49;25.30;73.50
19947;DHT22;10135;50.702;7.276;2023-08-20T07:08:50;25.30;73.40
19947;DHT22;10135;50.702;7.276;2023-08-20T07:10:51;25.30;73.40
19947;DHT22;10135;50.702;7.276;2023-08-20T07:12:52;25.40;73.60
19947;DHT22;10135;50.702;7.276;2023-08-20T07:14:52;25.40;73.60
19947;DHT22;10135;50.702;7.276;2023-08-20T07:16:53;25.40;73.60
19947;DHT22;10135;50.702;7.276;2023-08-20T07:18:53;25.40;73.60
19947;DHT22;10135;50.702;7.276;2023-08-20T07:20:55;25.50;73.70
19947;DHT22;10135;50.702;7.276;2023-08-20T07:22:56;25.50;73.80
19947;DHT22;10135;50.702;7.276;2023-08-20T07:24:56;25.60;73.80
19947;DHT22;10135;50.702;7.276;2023-08-20T07:26:57;25.60;73.60
19947;DHT22;10135;50.702;7.276;2023-08-20T07:29:02;25.60;73.50
19947;DHT22;10135;50.702;7.276;2023-08-20T07:31:04;25.60;73.50
19947;DHT22;10135;50.702;7.276;2023-08-20T07:33:06;25.70;73.50
19947;DHT22;10135;50.702;7.276;2023-08-20T07:35:07;25.70;73.40
19947;DHT22;10135;50.702;7.276;2023-08-20T07:37:09;25.80;73.50
19947;DHT22;10135;50.702;7.276;2023-08-20T07:39:09;25.70;73.30
19947;DHT22;10135;50.702;7.276;2023-08-20T07:41:10;25.80;73.30
19947;DHT22;10135;50.702;7.276;2023-08-20T07:43:11;25.80;73.30
19947;DHT22;10135;50.702;7.276;2023-08-20T07:45:12;25.80;73.20
19947;DHT22;10135;50.702;7.276;2023-08-20T07:47:13;25.80;73.20
19947;DHT22;10135;50.702;7.276;2023-08-20T07:49:14;25.80;73.30
19947;DHT22;10135;50.702;7.276;2023-08-20T07:51:14;25.80;73.20
19947;DHT22;10135;50.702;7.276;2023-08-20T07:53:15;25.90;73.20
19947;DHT22;10135;50.702;7.276;2023-08-20T07:55:16;25.90;73.30
19947;DHT22;10135;50.702;7.276;2023-08-20T07:57:16;25.90;73.20
19947;DHT22;10135;50.702;7.276;2023-08-20T07:59:17;26.00;73.20
19947;DHT22;10135;50.702;7.276;2023-08-20T08:01:18;26.00;73.20
19947;DHT22;10135;50.702;7.276;2023-08-20T08:03:18;26.00;73.30
19947;DHT22;10135;50.702;7.276;2023-08-20T08:05:19;26.00;73.30
19947;DHT22;10135;50.702;7.276;2023-08-20T08:07:19;26.00;73.20
19947;DHT22;10135;50.702;7.276;2023-08-20T08:09:29;26.00;73.20
19947;DHT22;10135;50.702;7.276;2023-08-20T08:11:31;26.00;73.20
19947;DHT22;10135;50.702;7.276;2023-08-20T08:13:32;26.10;73.20
19947;DHT22;10135;50.702;7.276;2023-08-20T08:15:32;26.10;73.20
19947;DHT22;10135;50.702;7.276;2023-08-20T08:17:33;26.10;73.20
19947;DHT22;10135;50.702;7.276;2023-08-20T08:19:34;26.20;73.20
19947;DHT22;10135;50.702;7.276;2023-08-20T08:21:35;26.10;73.20
19947;DHT22;10135;50.702;7.276;2023-08-20T08:23:35;26.20;73.20
19947;DHT22;10135;50.702;7.276;2023-08-20T08:25:39;26.20;73.10
19947;DHT22;10135;50.702;7.276;2023-08-20T08:27:40;26.20;73.10
19947;DHT22;10135;50.702;7.276;2023-08-20T08:29:41;26.20;73.00
19947;DHT22;10135;50.702;7.276;2023-08-20T08:31:42;26.30;73.10
19947;DHT22;10135;50.702;7.276;2023-08-20T08:33:42;26.30;73.00
19947;DHT22;10135;50.702;7.276;2023-08-20T08:35:43;26.30;72.90
19947;DHT22;10135;50.702;7.276;2023-08-20T08:37:43;26.30;72.90
19947;DHT22;10135;50.702;7.276;2023-08-20T08:39:44;26.40;73.00
19947;DHT22;10135;50.702;7.276;2023-08-20T08:41:49;26.40;72.90
19947;DHT22;10135;50.702;7.276;2023-08-20T08:43:53;26.40;72.90
19947;DHT22;10135;50.702;7.276;2023-08-20T08:45:56;26.50;72.90
19947;DHT22;10135;50.702;7.276;2023-08-20T08:47:57;26.40;72.60
19947;DHT22;10135;50.702;7.276;2023-08-20T08:49:58;26.50;72.60
19947;DHT22;10135;50.702;7.276;2023-08-20T08:51:59;26.50;72.50
19947;DHT22;10135;50.702;7.276;2023-08-20T08:54:02;26.60;72.50
19947;DHT22;10135;50.702;7.276;2023-08-20T08:56:03;26.60;72.50
19947;DHT22;10135;50.702;7.276;2023-08-20T08:58:06;26.60;72.50
19947;DHT22;10135;50.702;7.276;2023-08-20T09:00:07;26.60;72.20
19947;DHT22;10135;50.702;7.276;2023-08-20T09:02:10;26.70;72.30
19947;DHT22;10135;50.702;7.276;2023-08-20T09:04:11;26.70;72.10
19947;DHT22;10135;50.702;7.276;2023-08-20T09:06:12;26.80;72.00
19947;DHT22;10135;50.702;7.276;2023-08-20T09:08:19;26.80;71.90
19947;DHT22;10135;50.702;7.276;2023-08-20T09:10:21;26.80;71.40
19947;DHT22;10135;50.702;7.276;2023-08-20T09:12:21;26.80;71.70
19947;DHT22;10135;50.702;7.276;2023-08-20T09:14:28;26.80;71.70
19947;DHT22;10135;50.702;7.276;2023-08-20T09:16:33;26.90;71.50
19947;DHT22;10135;50.702;7.276;2023-08-20T09:18:41;26.90;71.70
19947;DHT22;10135;50.702;7.276;2023-08-20T09:20:44;26.90;71.30
19947;DHT22;10135;50.702;7.276;2023-08-20T09:22:49;27.00;71.70
19947;DHT22;10135;50.702;7.276;2023-08-20T09:24:56;27.00;71.30
19947;DHT22;10135;50.702;7.276;2023-08-20T09:26:57;27.00;72.00
19947;DHT22;10135;50.702;7.276;2023-08-20T09:29:03;27.10;71.30
19947;DHT22;10135;50.702;7.276;2023-08-20T09:31:03;27.10;71.10
19947;DHT22;10135;50.702;7.276;2023-08-20T09:33:10;27.20;71.20
19947;DHT22;10135;50.702;7.276;2023-08-20T09:35:18;27.20;70.90
19947;DHT22;10135;50.702;7.276;2023-08-20T09:37:21;27.30;70.70
19947;DHT22;10135;50.702;7.276;2023-08-20T09:39:22;27.20;70.70
19947;DHT22;10135;50.702;7.276;2023-08-20T09:41:23;27.30;70.70
19947;DHT22;10135;50.702;7.276;2023-08-20T09:43:24;27.30;70.60
19947;DHT22;10135;50.702;7.276;2023-08-20T09:45:29;27.30;70.40
19947;DHT22;10135;50.702;7.276;2023-08-20T09:47:33;27.40;70.20
19947;DHT22;10135;50.702;7.276;2023-08-20T09:51:38;27.50;69.90
19947;DHT22;10135;50.702;7.276;2023-08-20T09:53:53;27.50;69.70
19947;DHT22;10135;50.702;7.276;2023-08-20T09:56:13;27.50;68.90
19947;DHT22;10135;50.702;7.276;2023-08-20T09:58:21;27.60;69.00
19947;DHT22;10135;50.702;7.276;2023-08-20T10:00:25;27.60;69.60
19947;DHT22;10135;50.702;7.276;2023-08-20T10:02:28;27.70;69.60
19947;DHT22;10135;50.702;7.276;2023-08-20T10:04:30;27.70;69.50
19947;DHT22;10135;50.702;7.276;2023-08-20T10:06:31;27.90;69.50
19947;DHT22;10135;50.702;7.276;2023-08-20T10:08:34;27.90;69.40
19947;DHT22;10135;50.702;7.276;2023-08-20T10:10:36;28.00;69.10
19947;DHT22;10135;50.702;7.276;2023-08-20T10:12:37;28.00;69.00
19947;DHT22;10135;50.702;7.276;2023-08-20T10:14:42;28.00;68.90
19947;DHT22;10135;50.702;7.276;2023-08-20T10:16:43;28.10;68.80
19947;DHT22;10135;50.702;7.276;2023-08-20T10:18:44;28.20;68.60
19947;DHT22;10135;50.702;7.276;2023-08-20T10:20:45;28.20;68.40
19947;DHT22;10135;50.702;7.276;2023-08-20T10:22:46;28.20;68.30
19947;DHT22;10135;50.702;7.276;2023-08-20T10:24:52;28.20;68.20
19947;DHT22;10135;50.702;7.276;2023-08-20T10:27:22;28.30;67.70
19947;DHT22;10135;50.702;7.276;2023-08-20T10:29:40;28.40;67.30
19947;DHT22;10135;50.702;7.276;2023-08-20T10:31:46;28.40;67.30
19947;DHT22;10135;50.702;7.276;2023-08-20T10:33:54;28.40;67.50
19947;DHT22;10135;50.702;7.276;2023-08-20T10:35:58;28.50;67.70
19947;DHT22;10135;50.702;7.276;2023-08-20T10:38:15;28.50;67.70
19947;DHT22;10135;50.702;7.276;2023-08-20T10:40:50;28.60;66.80
19947;DHT22;10135;50.702;7.276;2023-08-20T10:43:01;28.60;66.80
19947;DHT22;10135;50.702;7.276;2023-08-20T10:45:05;28.70;66.70
19947;DHT22;10135;50.702;7.276;2023-08-20T10:47:09;28.70;66.70
19947;DHT22;10135;50.702;7.276;2023-08-20T10:49:16;28.80;67.00
19947;DHT22;10135;50.702;7.276;2023-08-20T10:51:18;28.80;66.10
19947;DHT22;10135;50.702;7.276;2023-08-20T10:53:22;28.80;66.70
19947;DHT22;10135;50.702;7.276;2023-08-20T10:55:23;28.90;66.30
19947;DHT22;10135;50.702;7.276;2023-08-20T10:57:35;28.90;66.30
19947;DHT22;10135;50.702;7.276;2023-08-20T10:59:40;28.90;65.20
19947;DHT22;10135;50.702;7.276;2023-08-20T11:01:43;29.00;65.60
19947;DHT22;10135;50.702;7.276;2023-08-20T11:03:46;29.00;65.60
19947;DHT22;10135;50.702;7.276;2023-08-20T11:05:51;29.10;65.90
19947;DHT22;10135;50.702;7.276;2023-08-20T11:07:52;29.10;65.70
19947;DHT22;10135;50.702;7.276;2023-08-20T11:09:53;29.10;65.50
19947;DHT22;10135;50.702;7.276;2023-08-20T11:11:55;29.10;65.30
19947;DHT22;10135;50.702;7.276;2023-08-20T11:13:57;29.20;65.00
19947;DHT22;10135;50.702;7.276;2023-08-20T11:16:05;29.20;64.80
19947;DHT22;10135;50.702;7.276;2023-08-20T11:18:06;29.30;64.80
19947;DHT22;10135;50.702;7.276;2023-08-20T11:20:08;29.30;64.70
19947;DHT22;10135;50.702;7.276;2023-08-20T11:22:11;29.30;64.60
19947;DHT22;10135;50.702;7.276;2023-08-20T11:24:14;29.30;64.60
19947;DHT22;10135;50.702;7.276;2023-08-20T11:26:14;29.40;64.40
19947;DHT22;10135;50.702;7.276;2023-08-20T11:28:15;29.50;64.30
19947;DHT22;10135;50.702;7.276;2023-08-20T11:30:16;29.50;64.20
19947;DHT22;10135;50.702;7.276;2023-08-20T11:32:17;29.50;64.10
19947;DHT22;10135;50.702;7.276;2023-08-20T11:34:21;29.50;63.70
19947;DHT22;10135;50.702;7.276;2023-08-20T11:36:22;29.60;63.20
19947;DHT22;10135;50.702;7.276;2023-08-20T11:38:23;29.60;63.70
19947;DHT22;10135;50.702;7.276;2023-08-20T11:40:25;29.60;63.40
19947;DHT22;10135;50.702;7.276;2023-08-20T11:42:26;29.60;63.40
19947;DHT22;10135;50.702;7.276;2023-08-20T11:44:27;29.70;63.30
19947;DHT22;10135;50.702;7.276;2023-08-20T11:46:27;29.70;63.00
19947;DHT22;10135;50.702;7.276;2023-08-20T11:48:28;29.70;63.20
19947;DHT22;10135;50.702;7.276;2023-08-20T11:50:30;29.70;63.00
19947;DHT22;10135;50.702;7.276;2023-08-20T11:52:32;29.80;63.10
19947;DHT22;10135;50.702;7.276;2023-08-20T11:54:33;29.80;63.00
19947;DHT22;10135;50.702;7.276;2023-08-20T11:56:34;29.90;63.10
19947;DHT22;10135;50.702;7.276;2023-08-20T11:58:35;30.00;63.00
19947;DHT22;10135;50.702;7.276;2023-08-20T12:00:36;30.00;62.80
19947;DHT22;10135;50.702;7.276;2023-08-20T12:02:37;30.10;62.70
19947;DHT22;10135;50.702;7.276;2023-08-20T12:04:41;30.10;62.40
19947;DHT22;10135;50.702;7.276;2023-08-20T12:09:21;30.30;61.50
19947;DHT22;10135;50.702;7.276;2023-08-20T12:11:30;30.30;61.00
19947;DHT22;10135;50.702;7.276;2023-08-20T12:13:31;30.30;61.00
19947;DHT22;10135;50.702;7.276;2023-08-20T12:15:31;30.40;61.50
19947;DHT22;10135;50.702;7.276;2023-08-20T12:17:32;30.40;61.50
19947;DHT22;10135;50.702;7.276;2023-08-20T12:19:33;30.40;61.50
19947;DHT22;10135;50.702;7.276;2023-08-20T12:21:33;30.50;61.60
19947;DHT22;10135;50.702;7.276;2023-08-20T12:23:34;30.50;61.50
19947;DHT22;10135;50.702;7.276;2023-08-20T12:25:35;30.50;61.10
19947;DHT22;10135;50.702;7.276;2023-08-20T12:27:36;30.60;60.90
19947;DHT22;10135;50.702;7.276;2023-08-20T12:29:37;30.70;60.80
19947;DHT22;10135;50.702;7.276;2023-08-20T12:31:38;30.70;60.50
19947;DHT22;10135;50.702;7.276;2023-08-20T12:33:41;30.70;60.30
19947;DHT22;10135;50.702;7.276;2023-08-20T12:35:42;30.70;60.20
19947;DHT22;10135;50.702;7.276;2023-08-20T12:37:43;30.70;60.00
19947;DHT22;10135;50.702;7.276;2023-08-20T12:39:44;30.70;59.90
19947;DHT22;10135;50.702;7.276;2023-08-20T12:41:44;30.70;59.80
19947;DHT22;10135;50.702;7.276;2023-08-20T12:43:45;30.70;59.90
19947;DHT22;10135;50.702;7.276;2023-08-20T12:45:46;30.70;59.70
19947;DHT22;10135;50.702;7.276;2023-08-20T12:47:47;30.80;59.60
19947;DHT22;10135;50.702;7.276;2023-08-20T12:49:47;30.80;59.50
19947;DHT22;10135;50.702;7.276;2023-08-20T12:51:48;30.80;59.30
19947;DHT22;10135;50.702;7.276;2023-08-20T12:53:49;30.80;59.30
19947;DHT22;10135;50.702;7.276;2023-08-20T12:55:50;30.80;59.10
19947;DHT22;10135;50.702;7.276;2023-08-20T12:59:59;30.80;58.50
19947;DHT22;10135;50.702;7.276;2023-08-20T13:02:00;30.90;58.80
19947;DHT22;10135;50.702;7.276;2023-08-20T13:04:00;30.90;58.80
19947;DHT22;10135;50.702;7.276;2023-08-20T13:06:01;30.90;58.80
19947;DHT22;10135;50.702;7.276;2023-08-20T13:08:03;30.90;58.80
19947;DHT22;10135;50.702;7.276;2023-08-20T13:10:04;30.90;58.70
19947;DHT22;10135;50.702;7.276;2023-08-20T13:12:06;31.00;59.20
19947;DHT22;10135;50.702;7.276;2023-08-20T13:14:11;31.00;58.50
19947;DHT22;10135;50.702;7.276;2023-08-20T13:16:12;31.00;58.50
19947;DHT22;10135;50.702;7.276;2023-08-20T13:18:13;31.00;58.20
19947;DHT22;10135;50.702;7.276;2023-08-20T13:20:15;31.10;58.30
19947;DHT22;10135;50.702;7.276;2023-08-20T13:22:16;31.10;58.10
19947;DHT22;10135;50.702;7.276;2023-08-20T13:24:17;31.10;58.10
19947;DHT22;10135;50.702;7.276;2023-08-20T13:26:18;31.20;58.00
19947;DHT22;10135;50.702;7.276;2023-08-20T13:28:18;31.20;57.80
19947;DHT22;10135;50.702;7.276;2023-08-20T13:30:19;31.20;58.40
19947;DHT22;10135;50.702;7.276;2023-08-20T13:32:20;31.20;57.70
19947;DHT22;10135;50.702;7.276;2023-08-20T13:34:20;31.30;58.20
19947;DHT22;10135;50.702;7.276;2023-08-20T13:36:21;31.30;57.40
19947;DHT22;10135;50.702;7.276;2023-08-20T13:38:22;31.30;57.30
19947;DHT22;10135;50.702;7.276;2023-08-20T13:40:22;31.40;57.20
19947;DHT22;10135;50.702;7.276;2023-08-20T13:42:23;31.40;57.20
19947;DHT22;10135;50.702;7.276;2023-08-20T13:44:24;31.40;57.10
19947;DHT22;10135;50.702;7.276;2023-08-20T13:46:24;31.40;56.90
19947;DHT22;10135;50.702;7.276;2023-08-20T13:48:25;31.50;56.90
19947;DHT22;10135;50.702;7.276;2023-08-20T13:50:26;31.50;56.80
19947;DHT22;10135;50.702;7.276;2023-08-20T13:52:26;31.50;56.60
19947;DHT22;10135;50.702;7.276;2023-08-20T13:54:27;31.50;56.40
19947;DHT22;10135;50.702;7.276;2023-08-20T13:56:28;31.60;56.40
19947;DHT22;10135;50.702;7.276;2023-08-20T13:58:28;31.60;56.40
19947;DHT22;10135;50.702;7.276;2023-08-20T14:00:29;31.60;56.40
19947;DHT22;10135;50.702;7.276;2023-08-20T14:02:29;31.60;56.40
19947;DHT22;10135;50.702;7.276;2023-08-20T14:04:30;31.60;56.20
19947;DHT22;10135;50.702;7.276;2023-08-20T14:06:31;31.60;56.00
19947;DHT22;10135;50.702;7.276;2023-08-20T14:08:32;31.70;56.00
19947;DHT22;10135;50.702;7.276;2023-08-20T14:10:33;31.70;55.90
19947;DHT22;10135;50.702;7.276;2023-08-20T14:12:34;31.70;55.80
19947;DHT22;10135;50.702;7.276;2023-08-20T14:14:34;31.70;55.70
19947;DHT22;10135;50.702;7.276;2023-08-20T14:16:35;31.70;55.80
19947;DHT22;10135;50.702;7.276;2023-08-20T14:18:36;31.70;55.70
19947;DHT22;10135;50.702;7.276;2023-08-20T14:20:37;31.70;55.60
19947;DHT22;10135;50.702;7.276;2023-08-20T14:22:37;31.60;55.40
19947;DHT22;10135;50.702;7.276;2023-08-20T14:24:38;31.60;55.40
19947;DHT22;10135;50.702;7.276;2023-08-20T14:26:39;31.60;55.40
19947;DHT22;10135;50.702;7.276;2023-08-20T14:28:39;31.50;55.30
19947;DHT22;10135;50.702;7.276;2023-08-20T14:30:40;31.50;55.40
19947;DHT22;10135;50.702;7.276;2023-08-20T14:32:41;31.50;55.40
19947;DHT22;10135;50.702;7.276;2023-08-20T14:34:42;31.50;55.40
19947;DHT22;10135;50.702;7.276;2023-08-20T14:36:43;31.50;55.30
19947;DHT22;10135;50.702;7.276;2023-08-20T14:38:43;31.40;55.30
19947;DHT22;10135;50.702;7.276;2023-08-20T14:40:44;31.40;55.40
19947;DHT22;10135;50.702;7.276;2023-08-20T14:42:45;31.40;55.10
19947;DHT22;10135;50.702;7.276;2023-08-20T14:44:45;31.40;55.10
19947;DHT22;10135;50.702;7.276;2023-08-20T14:46:46;31.30;55.00
19947;DHT22;10135;50.702;7.276;2023-08-20T14:48:47;31.30;55.10
19947;DHT22;10135;50.702;7.276;2023-08-20T14:50:48;31.20;55.00
19947;DHT22;10135;50.702;7.276;2023-08-20T14:52:49;31.20;55.00
19947;DHT22;10135;50.702;7.276;2023-08-20T14:54:52;31.10;55.00
19947;DHT22;10135;50.702;7.276;2023-08-20T14:56:53;31.10;55.00
19947;DHT22;10135;50.702;7.276;2023-08-20T14:58:53;31.00;55.20
19947;DHT22;10135;50.702;7.276;2023-08-20T15:00:54;31.00;55.10
19947;DHT22;10135;50.702;7.276;2023-08-20T15:02:54;31.00;55.10
19947;DHT22;10135;50.702;7.276;2023-08-20T15:04:55;30.90;55.10
19947;DHT22;10135;50.702;7.276;2023-08-20T15:06:56;30.90;55.00
19947;DHT22;10135;50.702;7.276;2023-08-20T15:08:56;30.90;55.00
19947;DHT22;10135;50.702;7.276;2023-08-20T15:10:58;30.90;55.00
19947;DHT22;10135;50.702;7.276;2023-08-20T15:12:59;30.90;55.10
19947;DHT22;10135;50.702;7.276;2023-08-20T15:15:01;30.90;55.30
19947;DHT22;10135;50.702;7.276;2023-08-20T15:17:04;30.90;55.40
19947;DHT22;10135;50.702;7.276;2023-08-20T15:19:04;30.90;55.20
19947;DHT22;10135;50.702;7.276;2023-08-20T15:21:05;30.90;55.20
19947;DHT22;10135;50.702;7.276;2023-08-20T15:23:06;30.90;55.10
19947;DHT22;10135;50.702;7.276;2023-08-20T15:25:06;30.90;55.10
19947;DHT22;10135;50.702;7.276;2023-08-20T15:27:08;30.90;55.10
19947;DHT22;10135;50.702;7.276;2023-08-20T15:29:09;30.90;55.00
19947;DHT22;10135;50.702;7.276;2023-08-20T15:31:09;30.90;55.00
19947;DHT22;10135;50.702;7.276;2023-08-20T15:33:10;30.90;55.00
19947;DHT22;10135;50.702;7.276;2023-08-20T15:35:11;30.90;54.90
19947;DHT22;10135;50.702;7.276;2023-08-20T15:37:11;30.80;54.90
19947;DHT22;10135;50.702;7.276;2023-08-20T15:39:12;30.80;54.90
19947;DHT22;10135;50.702;7.276;2023-08-20T15:41:13;30.80;54.80
19947;DHT22;10135;50.702;7.276;2023-08-20T15:43:15;30.80;55.50
19947;DHT22;10135;50.702;7.276;2023-08-20T15:45:16;30.80;54.90
19947;DHT22;10135;50.702;7.276;2023-08-20T15:47:16;30.80;54.90
19947;DHT22;10135;50.702;7.276;2023-08-20T15:49:17;30.70;54.90
19947;DHT22;10135;50.702;7.276;2023-08-20T15:51:18;30.70;54.90
19947;DHT22;10135;50.702;7.276;2023-08-20T15:53:19;30.70;54.80
19947;DHT22;10135;50.702;7.276;2023-08-20T15:55:19;30.70;54.80
19947;DHT22;10135;50.702;7.276;2023-08-20T15:57:20;30.70;54.80
19947;DHT22;10135;50.702;7.276;2023-08-20T15:59:21;30.70;54.80
19947;DHT22;10135;50.702;7.276;2023-08-20T16:01:22;30.70;54.70
19947;DHT22;10135;50.702;7.276;2023-08-20T16:03:25;30.70;54.70
19947;DHT22;10135;50.702;7.276;2023-08-20T16:05:25;30.60;54.60
19947;DHT22;10135;50.702;7.276;2023-08-20T16:07:26;30.60;54.60
19947;DHT22;10135;50.702;7.276;2023-08-20T16:09:27;30.60;54.60
19947;DHT22;10135;50.702;7.276;2023-08-20T16:11:27;30.50;54.60
19947;DHT22;10135;50.702;7.276;2023-08-20T16:13:28;30.50;54.60
19947;DHT22;10135;50.702;7.276;2023-08-20T16:15:29;30.50;54.60
19947;DHT22;10135;50.702;7.276;2023-08-20T16:17:30;30.40;54.60
19947;DHT22;10135;50.702;7.276;2023-08-20T16:19:32;30.40;54.60
19947;DHT22;10135;50.702;7.276;2023-08-20T16:21:32;30.40;54.70
19947;DHT22;10135;50.702;7.276;2023-08-20T16:23:33;30.40;54.80
19947;DHT22;10135;50.702;7.276;2023-08-20T16:25:34;30.30;54.70
19947;DHT22;10135;50.702;7.276;2023-08-20T16:27:37;30.30;54.70
19947;DHT22;10135;50.702;7.276;2023-08-20T16:29:38;30.20;54.70
19947;DHT22;10135;50.702;7.276;2023-08-20T16:31:38;30.30;54.80
19947;DHT22;10135;50.702;7.276;2023-08-20T16:33:39;30.20;54.80
19947;DHT22;10135;50.702;7.276;2023-08-20T16:35:40;30.20;54.80
19947;DHT22;10135;50.702;7.276;2023-08-20T16:37:40;30.20;54.80
19947;DHT22;10135;50.702;7.276;2023-08-20T16:39:41;30.20;54.80
19947;DHT22;10135;50.702;7.276;2023-08-20T16:41:42;30.20;54.80
19947;DHT22;10135;50.702;7.276;2023-08-20T16:43:42;30.20;54.90
19947;DHT22;10135;50.702;7.276;2023-08-20T16:45:43;30.20;54.90
19947;DHT22;10135;50.702;7.276;2023-08-20T16:47:44;30.20;54.90
19947;DHT22;10135;50.702;7.276;2023-08-20T16:49:45;30.20;54.90
19947;DHT22;10135;50.702;7.276;2023-08-20T16:51:45;30.20;54.90
19947;DHT22;10135;50.702;7.276;2023-08-20T16:53:47;30.10;54.80
19947;DHT22;10135;50.702;7.276;2023-08-20T16:55:54;30.20;54.80
19947;DHT22;10135;50.702;7.276;2023-08-20T16:57:55;30.10;54.70
19947;DHT22;10135;50.702;7.276;2023-08-20T16:59:56;30.20;54.90
19947;DHT22;10135;50.702;7.276;2023-08-20T17:01:56;30.20;54.90
19947;DHT22;10135;50.702;7.276;2023-08-20T17:03:58;30.20;54.90
19947;DHT22;10135;50.702;7.276;2023-08-20T17:06:03;30.20;54.80
19947;DHT22;10135;50.702;7.276;2023-08-20T17:08:05;30.20;54.80
19947;DHT22;10135;50.702;7.276;2023-08-20T17:10:07;30.20;54.90
19947;DHT22;10135;50.702;7.276;2023-08-20T17:12:08;30.20;54.80
19947;DHT22;10135;50.702;7.276;2023-08-20T17:14:09;30.20;54.80
19947;DHT22;10135;50.702;7.276;2023-08-20T17:16:09;30.30;54.80
19947;DHT22;10135;50.702;7.276;2023-08-20T17:18:10;30.20;54.60
19947;DHT22;10135;50.702;7.276;2023-08-20T17:20:11;30.20;54.60
19947;DHT22;10135;50.702;7.276;2023-08-20T17:22:12;30.20;54.70
19947;DHT22;10135;50.702;7.276;2023-08-20T17:24:13;30.20;54.60
19947;DHT22;10135;50.702;7.276;2023-08-20T17:26:14;30.20;54.60
19947;DHT22;10135;50.702;7.276;2023-08-20T17:28:15;30.10;54.70
19947;DHT22;10135;50.702;7.276;2023-08-20T17:30:16;30.10;54.70
19947;DHT22;10135;50.702;7.276;2023-08-20T17:32:16;30.10;54.70
19947;DHT22;10135;50.702;7.276;2023-08-20T17:34:17;30.00;54.70
19947;DHT22;10135;50.702;7.276;2023-08-20T17:36:18;30.00;54.80
19947;DHT22;10135;50.702;7.276;2023-08-20T17:38:18;30.00;54.80
19947;DHT22;10135;50.702;7.276;2023-08-20T17:40:20;30.00;54.90
19947;DHT22;10135;50.702;7.276;2023-08-20T17:42:21;29.90;54.90
19947;DHT22;10135;50.702;7.276;2023-08-20T17:46:25;29.90;55.00
19947;DHT22;10135;50.702;7.276;2023-08-20T17:48:25;29.80;55.10
19947;DHT22;10135;50.702;7.276;2023-08-20T17:50:28;29.80;55.10
19947;DHT22;10135;50.702;7.276;2023-08-20T17:52:28;29.80;55.10
19947;DHT22;10135;50.702;7.276;2023-08-20T17:54:29;29.70;55.00
19947;DHT22;10135;50.702;7.276;2023-08-20T17:56:30;29.70;55.10
19947;DHT22;10135;50.702;7.276;2023-08-20T17:58:31;29.70;55.10
19947;DHT22;10135;50.702;7.276;2023-08-20T18:00:32;29.70;55.10
19947;DHT22;10135;50.702;7.276;2023-08-20T18:02:32;29.70;55.20
19947;DHT22;10135;50.702;7.276;2023-08-20T18:04:33;29.70;55.20
19947;DHT22;10135;50.702;7.276;2023-08-20T18:06:34;29.60;55.20
19947;DHT22;10135;50.702;7.276;2023-08-20T18:08:35;29.60;55.20
19947;DHT22;10135;50.702;7.276;2023-08-20T18:10:36;29.60;55.30
19947;DHT22;10135;50.702;7.276;2023-08-20T18:12:37;29.60;55.30
19947;DHT22;10135;50.702;7.276;2023-08-20T18:14:38;29.60;55.30
19947;DHT22;10135;50.702;7.276;2023-08-20T18:16:39;29.50;55.20
19947;DHT22;10135;50.702;7.276;2023-08-20T18:18:41;29.50;55.20
19947;DHT22;10135;50.702;7.276;2023-08-20T18:20:42;29.50;55.20
19947;DHT22;10135;50.702;7.276;2023-08-20T18:22:42;29.50;55.30
19947;DHT22;10135;50.702;7.276;2023-08-20T18:24:43;29.40;55.30
19947;DHT22;10135;50.702;7.276;2023-08-20T18:26:44;29.40;55.30